createdAt,value
2022-12-05T00:01:47.723Z,25.75
2022-12-05T00:04:15.176Z,32.88
2022-12-05T00:06:43.441Z,24.90
2022-12-05T00:09:12.648Z,25.20
2022-12-05T00:11:42.725Z,25.10
2022-12-05T00:16:57.888Z,24.98
2022-12-05T00:22:11.527Z,24.50
2022-12-05T00:24:39.496Z,25.30
2022-12-05T00:27:06.477Z,24.77
2022-12-05T00:29:33.249Z,25.50
2022-12-05T00:32:00.122Z,26.00
2022-12-05T00:34:26.934Z,26.85
2022-12-05T00:36:53.736Z,25.98
2022-12-05T00:39:20.505Z,26.90
2022-12-05T00:41:47.249Z,26.27
2022-12-05T00:44:14.117Z,27.30
2022-12-05T00:46:41.219Z,27.50
2022-12-05T00:49:08.370Z,27.00
2022-12-05T00:51:38.227Z,28.20
2022-12-05T00:56:55.337Z,28.10
2022-12-05T01:02:09.252Z,27.45
2022-12-05T01:07:23.282Z,27.25
2022-12-05T01:09:50.073Z,27.10
2022-12-05T01:12:16.864Z,27.75
2022-12-05T01:14:43.599Z,29.20
2022-12-05T01:17:10.513Z,28.10
2022-12-05T01:19:37.327Z,28.50
2022-12-05T01:22:04.155Z,28.10
2022-12-05T01:24:30.977Z,28.63
2022-12-05T01:26:58.161Z,28.40
2022-12-05T01:29:25.849Z,28.60
2022-12-05T01:31:53.395Z,28.17
2022-12-05T01:34:21.210Z,28.63
2022-12-05T01:36:48.302Z,30.05
2022-12-05T01:42:04.912Z,29.05
2022-12-05T01:44:31.628Z,29.42
2022-12-05T01:46:58.353Z,31.38
2022-12-05T01:49:36.217Z,29.60
2022-12-05T01:52:13.124Z,30.55
2022-12-05T01:54:40.367Z,30.35
2022-12-05T02:00:08.523Z,32.53
2022-12-05T02:02:35.377Z,32.72
2022-12-05T02:05:05.529Z,32.03
2022-12-05T02:07:33.740Z,30.90
2022-12-05T02:10:00.742Z,32.33
2022-12-05T02:12:27.950Z,31.40
2022-12-05T02:15:18.408Z,31.38
2022-12-05T02:17:59.852Z,31.70
2022-12-05T02:21:15.443Z,29.30
2022-12-05T02:24:23.374Z,30.25
2022-12-05T02:27:01.778Z,31.45
2022-12-05T02:30:04.670Z,31.33
2022-12-05T02:32:40.474Z,32.70
2022-12-05T02:35:40.691Z,33.25
2022-12-05T02:38:19.145Z,31.83
2022-12-05T02:41:03.642Z,32.70
2022-12-05T02:43:37.298Z,32.95
2022-12-05T02:46:09.744Z,31.53
2022-12-05T02:48:37.758Z,32.13
2022-12-05T02:51:07.470Z,32.80
2022-12-05T02:53:37.537Z,33.08
2022-12-05T02:58:55.196Z,34.13
2022-12-05T03:01:27.625Z,32.97
2022-12-05T03:03:55.668Z,33.22
2022-12-05T03:06:27.728Z,32.05
2022-12-05T03:09:25.729Z,32.35
2022-12-05T03:12:03.263Z,31.65
2022-12-05T03:14:37.298Z,32.40
2022-12-05T03:20:25.152Z,32.97
2022-12-05T03:23:01.235Z,33.27
2022-12-05T03:25:40.455Z,32.00
2022-12-05T03:28:17.174Z,31.23
2022-12-05T03:30:44.619Z,31.23
2022-12-05T03:33:28.489Z,31.00
2022-12-05T03:36:24.569Z,30.88
2022-12-05T03:38:57.009Z,28.80
2022-12-05T03:41:26.781Z,30.27
2022-12-05T03:44:17.371Z,28.98
2022-12-05T03:46:54.276Z,30.00
2022-12-05T03:49:33.875Z,29.80
2022-12-05T03:52:01.104Z,30.05
2022-12-05T03:55:01.792Z,30.23
2022-12-05T04:00:23.654Z,32.33
2022-12-05T04:03:04.493Z,34.72
2022-12-05T04:05:34.238Z,32.83
2022-12-05T04:08:28.162Z,32.70
2022-12-05T04:11:09.417Z,31.17
2022-12-05T04:13:44.501Z,33.10
2022-12-05T04:16:24.022Z,31.83
2022-12-05T04:19:13.972Z,31.27
2022-12-05T04:21:47.826Z,31.55
2022-12-05T04:27:20.540Z,32.35
2022-12-05T04:30:17.064Z,32.10
2022-12-05T04:35:41.656Z,30.80
2022-12-05T04:38:13.355Z,30.57
2022-12-05T04:40:50.547Z,31.40
2022-12-05T04:43:19.585Z,32.88
2022-12-05T04:45:48.077Z,31.92
2022-12-05T04:48:17.572Z,31.70
2022-12-05T04:50:48.226Z,31.98
2022-12-05T04:53:16.921Z,32.45
2022-12-05T04:58:36.480Z,29.70
2022-12-05T05:04:07.472Z,29.87
2022-12-05T05:06:37.663Z,31.35
2022-12-05T05:09:04.541Z,31.00
2022-12-05T05:11:34.531Z,30.10
2022-12-05T05:14:02.192Z,30.03
2022-12-05T05:16:38.424Z,31.35
2022-12-05T05:21:53.555Z,30.98
2022-12-05T05:27:07.208Z,31.40
2022-12-05T05:32:20.660Z,40.10
2022-12-05T05:34:47.417Z,36.85
2022-12-05T05:37:14.181Z,33.13
2022-12-05T05:39:40.941Z,30.00
2022-12-05T05:42:07.708Z,30.77
2022-12-05T05:44:34.489Z,32.20
2022-12-05T05:47:01.325Z,36.47
2022-12-05T05:49:28.085Z,40.75
2022-12-05T05:51:54.834Z,31.85
2022-12-05T05:54:21.594Z,32.03
2022-12-05T05:56:48.357Z,32.47
2022-12-05T06:02:01.874Z,32.95
2022-12-05T06:07:15.383Z,33.40
2022-12-05T06:12:28.780Z,34.10
2022-12-05T06:14:55.588Z,32.80
2022-12-05T06:17:22.420Z,32.20
2022-12-05T06:19:49.153Z,32.60
2022-12-05T06:22:15.972Z,33.72
2022-12-05T06:24:42.959Z,33.83
2022-12-05T06:27:09.804Z,33.05
2022-12-05T06:29:36.626Z,33.10
2022-12-05T06:32:03.792Z,33.45
2022-12-05T06:34:30.698Z,34.20
2022-12-05T06:36:57.449Z,34.38
2022-12-05T06:39:24.180Z,33.92
2022-12-05T06:41:50.997Z,34.70
2022-12-05T06:44:17.724Z,37.88
2022-12-05T06:46:44.481Z,38.72
2022-12-05T06:49:11.305Z,36.30
2022-12-05T06:51:38.060Z,34.60
2022-12-05T06:54:05.437Z,38.28
2022-12-05T06:56:32.261Z,37.00
2022-12-05T06:58:59.006Z,36.28
2022-12-05T07:01:25.902Z,36.70
2022-12-05T07:03:52.649Z,37.53
2022-12-05T07:06:19.461Z,37.38
2022-12-05T07:08:46.252Z,37.42
2022-12-05T07:11:13.038Z,38.60
2022-12-05T07:13:39.866Z,37.33
2022-12-05T07:16:07.125Z,38.08
2022-12-05T07:18:34.698Z,37.72
2022-12-05T07:21:11.733Z,36.30
2022-12-05T07:23:39.409Z,47.80
2022-12-05T07:26:07.739Z,40.55
2022-12-05T07:28:35.127Z,36.83
2022-12-05T07:31:03.883Z,38.83
2022-12-05T07:33:30.791Z,38.17
2022-12-05T07:38:57.522Z,38.00
2022-12-05T07:41:29.943Z,36.42
2022-12-05T07:43:58.965Z,36.50
2022-12-05T07:46:27.432Z,36.05
2022-12-05T07:48:54.800Z,35.25
2022-12-05T07:51:22.344Z,34.88
2022-12-05T07:53:49.139Z,34.90
2022-12-05T07:56:17.296Z,36.60
2022-12-05T07:58:45.189Z,36.35
2022-12-05T08:01:17.703Z,35.65
2022-12-05T08:03:45.041Z,36.50
2022-12-05T08:06:17.893Z,36.80
2022-12-05T08:11:33.747Z,37.30
2022-12-05T08:14:00.536Z,35.08
2022-12-05T08:16:29.093Z,36.73
2022-12-05T08:19:00.619Z,36.22
2022-12-05T08:24:14.700Z,35.75
2022-12-05T08:29:28.210Z,34.35
2022-12-05T08:31:54.934Z,33.50
2022-12-05T08:34:21.741Z,32.30
2022-12-05T08:36:48.903Z,32.38
2022-12-05T08:41:46.576Z,30.48
2022-12-05T08:44:14.394Z,31.58
2022-12-05T08:49:27.890Z,31.20
2022-12-05T08:51:54.676Z,30.33
2022-12-05T08:54:21.417Z,30.95
2022-12-05T08:56:51.752Z,31.17
2022-12-05T09:01:46.008Z,30.00
2022-12-05T09:04:12.823Z,29.33
2022-12-05T09:06:40.347Z,29.95
2022-12-05T09:09:09.718Z,30.10
2022-12-05T09:11:39.446Z,29.25
2022-12-05T09:16:53.222Z,29.50
2022-12-05T09:22:07.326Z,28.90
2022-12-05T09:27:20.735Z,29.10
2022-12-05T09:29:47.477Z,28.10
2022-12-05T09:32:14.339Z,27.70
2022-12-05T09:34:41.105Z,26.83
2022-12-05T09:37:30.925Z,26.83
2022-12-05T09:42:51.666Z,25.77
2022-12-05T09:45:38.350Z,24.60
2022-12-05T09:48:14.508Z,24.83
2022-12-05T09:50:50.116Z,25.67
2022-12-05T09:53:22.835Z,25.90
2022-12-05T09:56:23.449Z,24.83
2022-12-05T10:01:46.981Z,23.08
2022-12-05T10:04:31.919Z,23.98
2022-12-05T10:07:10.176Z,21.67
2022-12-05T10:10:13.529Z,21.50
2022-12-05T10:13:20.379Z,22.05
2022-12-05T10:18:55.048Z,20.75
2022-12-05T10:21:30.408Z,19.95
2022-12-05T10:24:01.069Z,0
2022-12-05T10:26:59.010Z,19.63
2022-12-05T10:29:28.521Z,19.80
2022-12-05T10:32:13.064Z,19.80
2022-12-05T10:34:42.305Z,19.13
2022-12-05T10:37:21.018Z,19.15
2022-12-05T10:42:36.473Z,17.50
2022-12-05T10:47:56.956Z,16.90
2022-12-05T10:50:32.605Z,15.40
2022-12-05T10:53:02.028Z,14.65
2022-12-05T10:55:36.903Z,13.90
2022-12-05T10:58:18.019Z,13.10
2022-12-05T11:00:48.047Z,13.53
2022-12-05T11:03:36.279Z,15.73
2022-12-05T11:06:35.270Z,15.60
2022-12-05T11:09:08.765Z,0
2022-12-05T11:09:16.816Z,14.00
2022-12-05T11:12:00.261Z,13.93
2022-12-05T11:17:26.875Z,14.00
2022-12-05T11:19:54.506Z,14.70
2022-12-05T11:22:31.652Z,13.65
2022-12-05T11:24:59.061Z,14.27
2022-12-05T11:27:32.803Z,14.07
2022-12-05T11:33:24.652Z,13.33
2022-12-05T11:35:54.414Z,13.00
2022-12-05T11:38:27.064Z,14.00
2022-12-05T11:41:20.876Z,13.40
2022-12-05T11:44:21.465Z,12.68
2022-12-05T11:47:07.666Z,12.80
2022-12-05T11:49:55.765Z,11.75
2022-12-05T11:55:24.954Z,12.60
2022-12-05T11:57:59.414Z,12.30
2022-12-05T12:00:55.305Z,12.90
2022-12-05T12:03:33.597Z,12.30
2022-12-05T12:06:22.106Z,11.25
2022-12-05T12:09:16.148Z,11.48
2022-12-05T12:12:24.568Z,10.60
2022-12-05T12:15:00.452Z,11.05
2022-12-05T12:17:48.573Z,11.20
2022-12-05T12:20:21.476Z,11.18
2022-12-05T12:22:54.213Z,10.98
2022-12-05T12:25:47.734Z,14.20
2022-12-05T12:28:29.617Z,13.30
2022-12-05T12:31:06.185Z,14.48
2022-12-05T12:33:54.138Z,11.40
2022-12-05T12:36:35.418Z,9.70
2022-12-05T12:39:14.775Z,10.00
2022-12-05T12:41:56.579Z,9.60
2022-12-05T12:44:35.117Z,8.90
2022-12-05T12:47:04.549Z,8.90
2022-12-05T12:49:48.590Z,8.65
2022-12-05T12:52:22.966Z,8.47
2022-12-05T12:55:15.840Z,7.93
2022-12-05T12:57:51.668Z,8.30
2022-12-05T13:00:49.904Z,7.82
2022-12-05T13:03:32.978Z,7.07
2022-12-05T13:08:59.649Z,11.27
2022-12-05T13:11:30.188Z,7.53
2022-12-05T13:14:00.264Z,12.68
2022-12-05T13:19:42.400Z,6.90
2022-12-05T13:22:11.324Z,6.63
2022-12-05T13:24:38.982Z,6.70
2022-12-05T13:30:01.695Z,6.10
2022-12-05T13:32:33.336Z,6.90
2022-12-05T13:35:30.757Z,6.88
2022-12-05T13:37:57.561Z,6.50
2022-12-05T13:40:37.389Z,7.07
2022-12-05T13:43:05.462Z,7.00
2022-12-05T13:45:32.943Z,6.95
2022-12-05T13:47:59.719Z,6.50
2022-12-05T13:50:44.716Z,6.90
2022-12-05T13:53:36.385Z,21.13
2022-12-05T13:56:15.540Z,18.60
2022-12-05T13:58:44.594Z,9.30
2022-12-05T14:01:26.763Z,6.90
2022-12-05T14:04:02.878Z,6.97
2022-12-05T14:06:35.455Z,6.75
2022-12-05T14:09:03.348Z,6.82
2022-12-05T14:11:30.281Z,8.00
2022-12-05T14:14:02.434Z,21.58
2022-12-05T14:16:31.259Z,9.45
2022-12-05T14:19:24.167Z,8.40
2022-12-05T14:22:06.155Z,6.15
2022-12-05T14:24:48.733Z,6.18
2022-12-05T14:27:33.627Z,6.90
2022-12-05T14:30:23.472Z,6.63
2022-12-05T14:32:52.683Z,6.25
2022-12-05T14:35:31.865Z,6.18
2022-12-05T14:38:07.503Z,6.40
2022-12-05T14:40:40.591Z,6.60
2022-12-05T14:43:32.176Z,6.90
2022-12-05T14:46:03.519Z,6.90
2022-12-05T14:51:34.904Z,6.30
2022-12-05T14:57:12.342Z,7.10
2022-12-05T14:59:39.039Z,6.95
2022-12-05T15:02:05.902Z,6.40
2022-12-05T15:04:55.476Z,6.43
2022-12-05T15:07:33.925Z,6.97
2022-12-05T15:10:06.259Z,11.90
2022-12-05T15:12:12.321Z,0
2022-12-05T15:12:56.709Z,7.40
2022-12-05T15:15:37.906Z,14.73
2022-12-05T15:18:15.601Z,8.02
2022-12-05T15:20:54.477Z,7.60
2022-12-05T15:23:39.653Z,6.90
2022-12-05T15:26:51.121Z,0
2022-12-05T15:29:16.569Z,6.85
2022-12-05T15:32:01.389Z,6.70
2022-12-05T15:34:28.101Z,6.90
2022-12-05T15:37:10.538Z,7.07
2022-12-05T15:39:56.769Z,7.70
2022-12-05T15:42:38.273Z,7.90
2022-12-05T15:45:14.085Z,7.45
2022-12-05T15:47:42.336Z,7.13
2022-12-05T15:50:21.558Z,6.80
2022-12-05T15:53:01.322Z,11.75
2022-12-05T16:01:26.492Z,7.20
2022-12-05T16:03:56.193Z,7.00
2022-12-05T16:06:51.058Z,6.55
2022-12-05T16:09:23.809Z,6.40
2022-12-05T16:11:51.494Z,6.40
2022-12-05T16:14:37.253Z,6.40
2022-12-05T16:15:03.497Z,0
2022-12-05T16:17:07.078Z,6.18
2022-12-05T16:19:33.911Z,5.72
2022-12-05T16:22:02.386Z,5.50
2022-12-05T16:27:22.773Z,5.50
2022-12-05T16:30:12.874Z,5.20
2022-12-05T16:32:41.070Z,5.80
2022-12-05T16:35:30.746Z,5.30
2022-12-05T16:38:14.464Z,5.27
2022-12-05T16:40:45.406Z,5.20
2022-12-05T16:43:30.999Z,5.35
2022-12-05T16:46:13.142Z,4.70
2022-12-05T16:48:44.897Z,5.00
2022-12-05T16:51:11.599Z,5.30
2022-12-05T16:53:39.325Z,5.60
2022-12-05T16:56:07.983Z,5.30
2022-12-05T16:58:35.799Z,5.50
2022-12-05T17:01:05.823Z,5.30
2022-12-05T17:03:35.456Z,5.30
2022-12-05T17:06:03.285Z,5.40
2022-12-05T17:08:30.062Z,5.33
2022-12-05T17:10:57.166Z,5.13
2022-12-05T17:13:23.945Z,4.90
2022-12-05T17:15:50.794Z,5.18
2022-12-05T17:18:20.620Z,5.57
2022-12-05T17:20:55.988Z,5.60
2022-12-05T17:23:23.098Z,4.70
2022-12-05T17:25:54.974Z,5.10
2022-12-05T17:28:22.655Z,4.78
2022-12-05T17:30:49.733Z,4.88
2022-12-05T17:33:18.596Z,4.88
2022-12-05T17:35:45.707Z,5.10
2022-12-05T17:38:12.453Z,5.20
2022-12-05T17:43:26.749Z,4.50
2022-12-05T17:45:53.566Z,5.00
2022-12-05T17:48:20.635Z,4.85
2022-12-05T17:50:49.410Z,5.50
2022-12-05T17:53:18.997Z,12.95
2022-12-05T17:55:46.435Z,5.63
2022-12-05T17:58:13.207Z,5.18
2022-12-05T18:00:40.074Z,4.90
2022-12-05T18:03:06.840Z,5.07
2022-12-05T18:05:33.649Z,4.80
2022-12-05T18:08:00.466Z,5.40
2022-12-05T18:10:27.326Z,19.13
2022-12-05T18:12:54.085Z,23.58
2022-12-05T18:15:20.837Z,8.55
2022-12-05T18:17:47.640Z,4.80
2022-12-05T18:20:15.826Z,5.00
2022-12-05T18:22:42.995Z,4.60
2022-12-05T18:25:10.933Z,5.07
2022-12-05T18:27:38.179Z,4.57
2022-12-05T18:30:06.632Z,4.95
2022-12-05T18:32:33.722Z,4.70
2022-12-05T18:35:00.792Z,4.63
2022-12-05T18:37:28.202Z,12.10
2022-12-05T18:39:55.694Z,23.75
2022-12-05T18:42:22.853Z,18.38
2022-12-05T18:44:49.665Z,15.20
2022-12-05T18:47:16.533Z,18.20
2022-12-05T18:48:50.203Z,0
2022-12-05T18:49:43.289Z,20.92
2022-12-05T18:52:10.028Z,8.50
2022-12-05T18:54:36.829Z,5.00
2022-12-05T18:56:29.337Z,0
2022-12-05T18:57:03.696Z,4.72
2022-12-05T18:59:30.420Z,4.60
2022-12-05T19:01:57.278Z,4.40
2022-12-05T19:04:24.111Z,4.55
2022-12-05T19:06:56.410Z,4.50
2022-12-05T19:09:25.471Z,4.45
2022-12-05T19:11:54.474Z,4.40
2022-12-05T19:14:21.516Z,4.47
2022-12-05T19:16:53.707Z,9.00
2022-12-05T19:19:24.930Z,6.40
2022-12-05T19:24:38.434Z,4.35
2022-12-05T19:27:05.198Z,4.40
2022-12-05T19:29:31.974Z,4.22
2022-12-05T19:31:58.798Z,4.50
2022-12-05T19:34:25.627Z,4.20
2022-12-05T19:36:52.422Z,9.55
2022-12-05T19:39:23.905Z,12.85
2022-12-05T19:41:50.988Z,14.70
2022-12-05T19:44:17.980Z,5.28
2022-12-05T19:46:44.738Z,4.90
2022-12-05T19:49:13.824Z,4.30
2022-12-05T19:54:27.675Z,4.20
2022-12-05T19:56:54.547Z,4.05
2022-12-05T19:59:21.330Z,4.13
2022-12-05T20:01:48.221Z,3.90
2022-12-05T20:04:16.348Z,4.65
2022-12-05T20:06:45.897Z,12.05
2022-12-05T20:09:14.030Z,18.48
2022-12-05T20:14:29.846Z,4.90
2022-12-05T20:14:53.944Z,0
2022-12-05T20:16:56.710Z,4.45
2022-12-05T20:19:23.968Z,4.50
2022-12-05T20:21:50.752Z,4.60
2022-12-05T20:24:17.525Z,4.37
2022-12-05T20:26:44.829Z,4.60
2022-12-05T20:29:12.171Z,4.70
2022-12-05T20:34:28.444Z,4.20
2022-12-05T20:36:55.210Z,4.70
2022-12-05T20:39:21.960Z,4.20
2022-12-05T20:41:49.340Z,4.50
2022-12-05T20:44:16.710Z,4.57
2022-12-05T20:46:43.597Z,4.60
2022-12-05T20:49:12.454Z,4.80
2022-12-05T20:54:28.803Z,5.80
2022-12-05T20:56:55.536Z,5.85
2022-12-05T20:59:22.284Z,6.20
2022-12-05T21:01:49.019Z,7.50
2022-12-05T21:04:15.961Z,7.63
2022-12-05T21:06:43.601Z,7.77
2022-12-05T21:09:11.366Z,7.13
2022-12-05T21:11:38.107Z,7.80
2022-12-05T21:14:04.945Z,7.10
2022-12-05T21:16:32.100Z,6.75
2022-12-05T21:18:59.896Z,7.38
2022-12-05T21:21:28.043Z,7.40
2022-12-05T21:23:56.060Z,7.50
2022-12-05T21:26:24.602Z,7.20
2022-12-05T21:28:51.522Z,7.28
2022-12-05T21:31:30.185Z,7.60
2022-12-05T21:36:47.065Z,7.93
2022-12-05T21:42:01.603Z,7.00
2022-12-05T21:47:15.032Z,7.30
2022-12-05T21:49:41.809Z,6.80
2022-12-05T21:52:08.562Z,7.07
2022-12-05T21:54:35.287Z,7.00
2022-12-05T21:57:02.019Z,7.30
2022-12-05T21:59:28.770Z,7.25
2022-12-05T22:01:55.539Z,6.80
2022-12-05T22:04:22.364Z,7.20
2022-12-05T22:06:49.123Z,6.60
2022-12-05T22:09:15.892Z,7.45
2022-12-05T22:11:42.649Z,7.00
2022-12-05T22:14:09.567Z,7.28
2022-12-05T22:16:36.332Z,7.10
2022-12-05T22:19:03.468Z,7.13
2022-12-05T22:21:30.703Z,7.23
2022-12-05T22:23:57.454Z,6.80
2022-12-05T22:26:25.599Z,7.50
2022-12-05T22:28:56.519Z,7.18
2022-12-05T22:31:24.808Z,7.43
2022-12-05T22:33:51.848Z,7.00
2022-12-05T22:36:20.094Z,7.70
2022-12-05T22:38:48.020Z,7.90
2022-12-05T22:44:10.897Z,8.20
2022-12-05T22:46:37.709Z,8.00
2022-12-05T22:49:04.814Z,7.80
2022-12-05T22:51:31.787Z,7.80
2022-12-05T22:53:59.188Z,8.07
2022-12-05T22:56:27.809Z,7.40
2022-12-05T22:58:59.433Z,8.20
2022-12-05T23:04:16.770Z,10.40
2022-12-05T23:09:30.277Z,7.68
2022-12-05T23:14:43.644Z,7.87
2022-12-05T23:17:10.434Z,7.80
2022-12-05T23:19:37.177Z,7.60
2022-12-05T23:22:03.905Z,7.30
2022-12-05T23:24:30.650Z,7.40
2022-12-05T23:26:57.416Z,6.78
2022-12-05T23:29:24.179Z,6.70
2022-12-05T23:31:50.997Z,6.88
2022-12-05T23:34:17.877Z,6.90
2022-12-05T23:36:44.638Z,6.90
2022-12-05T23:39:11.396Z,6.57
2022-12-05T23:41:38.128Z,6.75
2022-12-05T23:44:05.326Z,6.60
2022-12-05T23:46:32.296Z,6.50
2022-12-05T23:48:59.133Z,6.80
2022-12-05T23:51:28.789Z,6.47
2022-12-05T23:53:58.433Z,6.85
2022-12-05T23:56:30.813Z,6.70
2022-12-05T23:58:57.981Z,6.70
